World of Logs combat log analyzer allows gamers to save, share and analyze their raiding experiences conveniently and thoroughly in the Blizzard MMO World of Warcraft. If you're new here, make sure you check out the tour for a 1 minute introduction. If you have any questions, we're happy to answer them on the forums.

DPS HPS
Odyn
Helya
Guarm
Reports for Siegecrafter Blackfuse - statistics
# Date Time Damage DPS Guild Realm
1 28 Sep 2014 02:06 1086.84M 8587700.6 OasisPommePoire EU-Kirin Tor
2 28 Sep 2014 02:06 1086.09M 8580915.4 Paradoxe EU-Kirin Tor
3 15 Sep 2014 02:07 1065.62M 8351053.3 C'ss EU-Ревущий фьорд
4 16 Sep 2014 02:10 1068.08M 8214136.1 Yolcu EU-Twisting Nether
5 27 Sep 2014 02:11 1080.55M 8240196.7 sleep logs US-Sargeras
6 08 Sep 2014 02:16 1066.35M 7817117.8 Хаммерстоун EU-Страж Смерти
7 08 Sep 2014 02:16 1066.85M 7820223.1 Аля-ля-ля EU-Deathwing
8 22 Sep 2014 02:18 1103.07M 7950261.8 Defection US-Khaz'goroth
9 13 Sep 2014 02:18 1070.05M 7701199.9 Der abgebrannte Kreuzzug EU-Blackhand
10 28 Sep 2014 02:19 1089.12M 7789114.5 Velayna's Logs EU-Kazzak
11 28 Sep 2014 02:19 1089.19M 7789135.3 Vita Nova EU-Quel'Thalas
12 17 Aug 2014 02:20 1063.76M 7593437.7 Безумный шляпниК EU-Дракономор
13 12 Oct 2014 02:21 1068.47M 7528176.0 Shivaguild EU-Stormrage
14 12 Oct 2014 02:21 1068.50M 7528175.1 YenThee EU-Stormrage
15 09 Oct 2014 02:21 1080.83M 7612624.6 Divide US-Stormrage
16 14 Oct 2014 02:24 1071.25M 7397636.5 AvengerS EU-Blackmoore
17 09 Sep 2014 02:24 1098.55M 7583796.3 Bikinigirls EU-Thrall
18 06 Oct 2014 02:25 1077.78M 7422457.4 Хаммерстоун EU-Страж Смерти
19 13 Oct 2014 02:25 1077.50M 7398437.6 Reforged US-Draenor
20 13 Oct 2014 02:26 1077.90M 7376684.5 Apocalypse EU-Mal'Ganis
21 13 Oct 2014 02:26 1063.21M 7267998.0 Nemesis EU-Conseil des Ombres
22 06 Oct 2014 02:26 1068.86M 7299911.5 Pandora - Feitl Club EU-Die Silberne Hand
23 06 Oct 2014 02:26 1068.86M 7297070.9 Happy Crits Crew EU-Die Silberne Hand
24 13 Oct 2014 02:26 1076.71M 7335344.5 Excelsior EU-Lothar
25 13 Oct 2014 02:27 1082.63M 7350613.7 Парадигма EU-Ревущий фьорд
26 25 Sep 2014 02:27 1075.40M 7279404.4 Myth US-Sargeras
27 25 Sep 2014 02:27 1075.41M 7278573.5 Devout US-Sargeras
28 08 Sep 2014 02:28 1111.54M 7486099.1 Trial and Error US-Draenor
29 05 Oct 2014 02:28 1077.06M 7239990.9 Blood Shadows EU-Drak'thul
30 15 Sep 2014 02:28 1073.28M 7208901.3 Almost Skilled EU-Draenor
31 15 Sep 2014 02:28 1073.29M 7208597.6 Almost Skilled EU-Draenor
32 11 Oct 2014 02:29 1065.98M 7144534.4 Mommybear US-Thrall
33 07 Oct 2014 02:29 1098.31M 7345106.1 Art Of EU-Ysondre
34 16 Sep 2014 02:30 1072.92M 7144211.7 V I R T U S EU-Blackhand
35 08 Sep 2014 02:31 1104.43M 7306539.6 Twisted EU-Hyjal
36 05 Oct 2014 02:31 1078.91M 7110536.3 Righteous Impurity US-Hyjal
37 09 Sep 2014 02:31 1082.84M 7124245.2 Aire Vanda EU-Marécage de Zangar
38 08 Sep 2014 02:32 1075.74M 7074616.3 Vindicta V2 EU-Sargeras
39 05 Oct 2014 02:32 1072.88M 7042907.8 Enclave US-Shattered Hand
40 11 Sep 2014 02:34 1078.19M 6979825.3 Invîctus US-Thrall
41 17 Sep 2014 02:36 1085.75M 6940282.1 Без шансов EU-Ревущий фьорд
42 09 Sep 2014 02:36 1073.19M 6857429.6 Вишнёвый переулок EU-Подземье
43 09 Sep 2014 02:36 1073.55M 6857833.3 Террариум EU-Гордунни
44 13 Oct 2014 02:36 1073.67M 6841376.7 Pars Pro Toto EU-Frostwolf
45 14 Oct 2014 02:37 1113.38M 7078472.1 Элиорн EU-Гордунни
46 15 Sep 2014 02:37 1079.69M 6864086.6 YenThee EU-Stormrage
47 01 May 2014 02:37 1072.30M 6788015.3 Wolf Pack EU-Ragnaros
48 25 Sep 2014 02:38 1092.38M 6909802.1 Kinetic US-Alexstrasza
49 22 Sep 2014 02:38 1073.35M 6787884.5 Flaw of Mortality US-Draenor
50 08 Sep 2014 02:38 1074.03M 6789112.5 Pars Pro Toto EU-Frostwolf
51 05 Oct 2014 02:38 1080.97M 6823571.3 logs US-Stormrage
52 22 Sep 2014 02:40 1073.73M 6677248.0 Hearts Of The Storm EU-Дракономор
53 12 Oct 2014 02:40 1076.85M 6689291.8 Pathetic EU-Alleria
54 12 Oct 2014 02:40 1076.85M 6689038.5 Firstis Logs EU-Blackhand
55 09 Sep 2014 02:41 1073.70M 6659577.3 VII EU-Emerald Dream
56 21 Sep 2014 02:41 1077.42M 6664529.5 Legion V EU-Ravencrest
57 18 Sep 2014 02:41 1103.46M 6821787.8 Apophasis US-Shattered Hand
58 13 Sep 2014 02:42 1081.35M 6672634.4 Evolution 2.0 EU-Ясеневый лес
59 08 Sep 2014 02:42 1079.88M 6627282.9 °Twentyfive Randoms° EU-Blackhand
60 08 Sep 2014 02:42 1079.44M 6623811.5 Mullu´s DPS CN-瑟莱德丝
61 13 Oct 2014 02:43 1074.89M 6591765.7 ist gestört EU-Antonidas
62 13 Oct 2014 02:43 1074.58M 6582718.7 Pandora - Feitl Club EU-Die Silberne Hand
63 11 Sep 2014 02:44 1078.62M 6570550.9 So Its Mutiny You Say US-Korgath
64 20 Sep 2014 02:44 1078.59M 6557440.7 Neko logs EU-Silvermoon
65 20 Sep 2014 02:44 1076.90M 6546367.1 Livvians Own EU-Argent Dawn
66 20 Sep 2014 02:44 1078.96M 6558495.5 Ani's Logs EU-Silvermoon
67 09 Sep 2014 02:44 1083.89M 6587303.8 Sparks EU-The Maelstrom
68 20 Sep 2014 02:44 1083.79M 6583882.2 Know How EU-Ясеневый лес
69 20 Sep 2014 02:44 1083.72M 6582412.8 Эхо судьбы EU-Ясеневый лес
70 07 Sep 2014 02:46 1081.34M 6510098.5 Thunderdome US-Zul'jin
71 14 Sep 2014 02:46 1076.56M 6478190.2 A Coterie Of Casuals US-Area 52
72 20 Sep 2014 02:46 1104.54M 6617792.5 True intentions EU-Ragnaros
73 12 Oct 2014 02:46 1077.94M 6458033.8 de la Sol EU-Lordaeron
74 29 Sep 2014 02:47 1079.74M 6464907.2 Excelsior EU-Lothar
75 08 Oct 2014 02:47 1076.65M 6417944.6 Evileye US-Garona
76 13 Sep 2014 02:48 1079.34M 6401347.5 Absolute US-Sentinels
77 13 Sep 2014 02:48 1079.34M 6401043.8 Absolute US-Sentinels
78 11 Sep 2014 02:48 1076.08M 6370569.3 Capax Infiniti US-Kil'jaeden
79 09 Sep 2014 02:49 1079.20M 6384804.4 Indifference EU-C'Thun
80 10 Oct 2014 02:49 1114.44M 6583984.5 Planet Express Logs US-Ner'zhul
81 06 Sep 2014 02:49 1084.69M 6403716.1 Тайга EU-Ясеневый лес
82 28 Sep 2014 02:50 1082.61M 6365577.0 Method XL EU-Twisting Nether
83 08 Sep 2014 02:50 1080.03M 6345076.0 reprieve US-Nagrand
84 10 Sep 2014 02:50 1120.07M 6578682.4 Резонанс Душ(с) EU-Разувий
85 09 Sep 2014 02:50 1120.10M 6577058.0 hevell EU-Гордунни
86 07 Sep 2014 02:50 1103.53M 6478150.2 Lulle´s Loggs EU-Antonidas
87 20 Sep 2014 02:50 1114.25M 6535095.6 Chucknourish's Logs US-Illidan
88 29 Apr 2014 02:50 1075.41M 6301966.1 Conviction EU-Arathor
89 13 Oct 2014 02:50 1076.56M 6296282.4 Черноснежа логи EU-Черный Шрам
90 13 Oct 2014 02:51 1075.68M 6281142.3 Core of Greymane US-Greymane
91 08 Oct 2014 02:51 1078.64M 6291227.7 End Game Theory US-Fenris
92 16 Sep 2014 02:51 1076.57M 6279113.6 не трогайте иконки EU-Свежеватель Душ
93 28 Sep 2014 02:51 1118.63M 6516940.0 Rainbow Cupcakes US-Kel'Thuzad
94 06 Oct 2014 02:51 1104.44M 6431436.5 Katarina EU-Гордунни
95 01 Oct 2014 02:51 1120.87M 6525217.5 Devout US-Sargeras
96 26 Sep 2014 02:51 1079.96M 6284847.9 Para_Bellum US-Thrall
97 15 Sep 2014 02:52 1107.92M 6431512.4 Ash US-Proudmoore
98 09 Sep 2014 02:52 1078.53M 6247388.3 Trall EU-Ревущий фьорд
99 09 Sep 2014 02:52 1078.53M 6245543.2 Без шансов EU-Ревущий фьорд
100 05 Oct 2014 02:53 1077.55M 6215688.4 Stockholm Syndrome US-Area 52

Please do not close the page with the ad you want to report.

I've posted a guide on how to report misbehaving ads on the forum. Please follow the instructions and help make the internet a safer place. Thanks for you time.